Time;durP1;ratioP1;P1;durP2;ratioP2;P2;SDS_P1;SDS_P2;PMS_P1;PMS_P2;Temp;Humidity;BMP_temperature;BMP_pressure;BME280_temperature;BME280_humidity;BME280_pressure;Samples;Min_cycle;Max_cycle;Signal;HPM_P1;HPM_P2
2022/05/24 00:01:34;;;;;;;0.00;0.00;;;17.70;99.90;;;;;;4987896;28;20049;-70
2022/05/24 00:04:05;;;;;;;1.83;1.23;;;17.70;99.90;;;;;;4987849;28;20018;-70
2022/05/24 00:06:32;;;;;;;0.10;0.10;;;17.60;99.90;;;;;;4988042;28;20041;-71
2022/05/24 00:08:59;;;;;;;0.00;0.00;;;17.60;99.90;;;;;;4987927;28;20030;-71
2022/05/24 00:11:25;;;;;;;0.22;0.22;;;17.60;99.90;;;;;;4973040;28;20023;-71
2022/05/24 00:13:50;;;;;;;0.00;0.00;;;17.60;99.90;;;;;;4973099;28;20038;-71
2022/05/24 00:16:17;;;;;;;0.00;0.00;;;17.60;99.90;;;;;;4987302;28;20022;-70
2022/05/24 00:18:43;;;;;;;1.15;0.68;;;17.70;99.90;;;;;;4987035;28;20097;-71
2022/05/24 00:21:09;;;;;;;0.03;0.03;;;17.70;99.90;;;;;;4987861;28;20027;-71
2022/05/24 00:23:35;;;;;;;0.00;0.00;;;17.60;99.90;;;;;;4987823;28;20030;-70
2022/05/24 00:26:08;;;;;;;0.00;0.00;;;17.70;99.90;;;;;;4972503;28;20027;-70
2022/05/24 00:28:36;;;;;;;0.20;0.20;;;17.70;99.90;;;;;;4986511;28;20121;-71
2022/05/24 00:31:04;;;;;;;0.00;0.00;;;17.70;99.90;;;;;;4972586;28;20391;-70
2022/05/24 00:33:31;;;;;;;0.00;0.00;;;17.60;99.90;;;;;;4972759;28;20031;-71
2022/05/24 00:35:57;;;;;;;0.30;0.25;;;17.70;99.90;;;;;;4987075;28;20054;-71
2022/05/24 00:38:36;;;;;;;0.10;0.10;;;17.60;99.90;;;;;;4972302;28;20483;-71
2022/05/24 00:41:25;;;;;;;0.30;0.30;;;17.60;99.90;;;;;;4987157;28;20058;-71
2022/05/24 00:43:56;;;;;;;0.25;0.25;;;17.70;99.90;;;;;;4972553;28;20053;-70
2022/05/24 00:46:29;;;;;;;0.00;0.00;;;17.80;99.90;;;;;;4972583;28;20062;-71
2022/05/24 00:49:11;;;;;;;2.50;0.40;;;17.80;99.90;;;;;;4972045;28;20030;-70
2022/05/24 00:51:47;;;;;;;0.10;0.10;;;17.80;99.90;;;;;;4986560;28;20034;-71
2022/05/24 00:54:14;;;;;;;0.43;0.15;;;17.80;99.90;;;;;;4986631;28;20121;-70
2022/05/24 00:56:56;;;;;;;0.00;0.00;;;17.70;99.90;;;;;;4986952;28;20026;-70
2022/05/24 00:59:40;;;;;;;0.75;0.75;;;17.70;99.90;;;;;;4985921;28;20459;-71
2022/05/24 01:02:06;;;;;;;0.00;0.00;;;17.70;99.90;;;;;;4986404;28;20062;-70
2022/05/24 01:04:32;;;;;;;0.00;0.00;;;17.60;99.90;;;;;;4982816;28;20015;-70
2022/05/24 01:06:58;;;;;;;0.08;0.08;;;17.70;99.90;;;;;;4965386;28;20027;-70
2022/05/24 01:09:26;;;;;;;0.10;0.10;;;17.60;99.90;;;;;;4970605;28;20045;-71
2022/05/24 01:11:59;;;;;;;0.10;0.05;;;17.60;99.90;;;;;;4971646;28;20230;-70
2022/05/24 01:14:26;;;;;;;0.00;0.00;;;17.70;99.90;;;;;;4971751;28;20117;-71
2022/05/24 01:16:54;;;;;;;0.00;0.00;;;17.60;99.90;;;;;;4952466;28;20164;-70
2022/05/24 01:19:41;;;;;;;3.72;1.55;;;17.70;99.90;;;;;;4935248;29;20078;-70
2022/05/24 01:22:37;;;;;;;0.43;0.35;;;17.70;99.90;;;;;;4951126;29;20023;-70
2022/05/24 01:25:52;;;;;;;0.30;0.25;;;17.70;99.90;;;;;;4968034;28;20507;-70
2022/05/24 01:28:44;;;;;;;0.15;0.15;;;17.70;99.90;;;;;;4965808;28;20085;-71
2022/05/24 01:31:10;;;;;;;0.00;0.00;;;17.60;99.90;;;;;;4971699;28;20479;-71
2022/05/24 01:36:25;;;;;;;0.10;0.10;;;17.40;99.90;;;;;;4971678;28;20058;-71
2022/05/24 01:39:00;;;;;;;0.47;0.47;;;17.50;99.90;;;;;;4970314;28;20034;-71
2022/05/24 01:41:44;;;;;;;0.10;0.10;;;17.40;99.90;;;;;;4960078;28;20341;-71
2022/05/24 01:44:12;;;;;;;0.30;0.30;;;17.40;99.90;;;;;;4952279;28;20114;-71
2022/05/24 01:46:46;;;;;;;0.30;0.30;;;17.30;99.90;;;;;;4951051;29;20060;-71
2022/05/24 01:49:24;;;;;;;1.33;0.57;;;17.20;99.90;;;;;;4951230;29;20031;-71
2022/05/24 01:52:01;;;;;;;0.35;0.35;;;17.20;99.90;;;;;;4950839;29;20034;-71
2022/05/24 01:54:30;;;;;;;0.00;0.00;;;17.10;99.90;;;;;;4951325;28;20058;-71
2022/05/24 01:57:13;;;;;;;0.10;0.10;;;17.00;99.90;;;;;;4935060;29;20059;-71
2022/05/24 01:59:42;;;;;;;0.10;0.10;;;17.00;99.90;;;;;;4952011;28;20078;-71
2022/05/24 02:02:08;;;;;;;0.10;0.10;;;17.00;99.90;;;;;;4951132;29;20525;-70
2022/05/24 02:04:34;;;;;;;0.10;0.10;;;17.10;99.90;;;;;;4934904;29;20031;-71
2022/05/24 02:07:15;;;;;;;0.13;0.10;;;17.10;99.90;;;;;;4951974;29;20042;-70
2022/05/24 02:09:49;;;;;;;0.40;0.40;;;17.00;99.90;;;;;;4935807;29;20499;-71
2022/05/24 02:12:44;;;;;;;0.00;0.00;;;17.00;99.90;;;;;;4952251;28;20031;-70
2022/05/24 02:15:18;;;;;;;0.30;0.30;;;17.00;99.90;;;;;;4959257;28;20742;-71
2022/05/24 02:18:17;;;;;;;0.10;0.10;;;17.00;99.90;;;;;;4970977;28;20042;-71
2022/05/24 02:20:45;;;;;;;0.40;0.17;;;17.10;99.90;;;;;;4969885;28;20039;-71
2022/05/24 02:23:15;;;;;;;0.08;0.08;;;17.10;99.90;;;;;;4970067;28;20046;-71
2022/05/24 02:25:53;;;;;;;0.00;0.00;;;17.00;99.90;;;;;;4971199;28;20070;-71
2022/05/24 02:28:27;;;;;;;0.73;0.25;;;17.10;99.90;;;;;;4970906;28;20380;-71
2022/05/24 02:30:58;;;;;;;0.35;0.35;;;17.00;99.90;;;;;;4970260;28;20054;-71
2022/05/24 02:33:24;;;;;;;0.73;0.22;;;17.00;99.90;;;;;;4971148;28;20039;-71
2022/05/24 02:35:51;;;;;;;0.00;0.00;;;16.90;99.90;;;;;;4971379;28;20044;-71
2022/05/24 02:38:18;;;;;;;0.28;0.28;;;17.00;99.90;;;;;;4971072;28;20031;-71
2022/05/24 02:43:29;;;;;;;0.00;0.00;;;16.90;99.90;;;;;;4973338;28;20042;-70
2022/05/24 02:45:55;;;;;;;0.08;0.08;;;16.80;99.90;;;;;;4974860;28;20018;-70
2022/05/24 02:48:21;;;;;;;0.35;0.35;;;16.80;99.90;;;;;;4974559;28;20026;-70
2022/05/24 02:50:47;;;;;;;0.70;0.70;;;16.90;99.90;;;;;;4973056;28;20031;-71
2022/05/24 02:53:13;;;;;;;0.10;0.10;;;16.90;99.90;;;;;;4973231;28;20567;-71
2022/05/24 02:55:39;;;;;;;0.20;0.20;;;16.90;99.90;;;;;;4974786;28;20125;-71
2022/05/24 02:58:05;;;;;;;1.75;0.68;;;16.90;99.90;;;;;;4973062;28;20118;-71
2022/05/24 03:00:30;;;;;;;0.38;0.38;;;16.90;99.90;;;;;;4974106;28;20392;-71
2022/05/24 03:02:56;;;;;;;0.10;0.10;;;16.80;99.90;;;;;;4985636;28;20038;-71
2022/05/24 03:05:24;;;;;;;0.00;0.00;;;16.80;99.90;;;;;;4966480;28;20026;-71
2022/05/24 03:10:35;;;;;;;1.75;0.40;;;16.80;99.90;;;;;;4972700;28;20081;-71
2022/05/24 03:15:47;;;;;;;0.15;0.15;;;16.90;99.90;;;;;;4972787;28;20525;-71
2022/05/24 03:18:17;;;;;;;0.65;0.52;;;16.80;99.90;;;;;;4973769;28;20039;-71
2022/05/24 03:20:43;;;;;;;0.00;0.00;;;16.80;99.90;;;;;;4974151;28;20027;-71
2022/05/24 03:23:10;;;;;;;0.00;0.00;;;16.70;99.90;;;;;;4974083;28;20077;-71
2022/05/24 03:25:36;;;;;;;0.20;0.20;;;16.60;99.90;;;;;;4969373;28;20103;-71
2022/05/24 03:28:04;;;;;;;0.75;0.70;;;16.60;99.90;;;;;;4969089;28;20042;-70
2022/05/24 03:30:32;;;;;;;0.10;0.10;;;16.50;99.90;;;;;;4952900;29;20475;-70
2022/05/24 03:32:58;;;;;;;0.00;0.00;;;16.60;99.90;;;;;;4968946;28;20031;-70
2022/05/24 03:35:24;;;;;;;0.08;0.05;;;16.50;99.90;;;;;;4969266;28;20114;-70
2022/05/24 03:37:50;;;;;;;2.67;1.27;;;16.40;99.90;;;;;;4954322;28;20139;-70
2022/05/24 03:40:16;;;;;;;0.00;0.00;;;16.50;99.90;;;;;;4953904;29;20451;-71
2022/05/24 03:42:45;;;;;;;1.35;0.57;;;16.50;99.90;;;;;;4970272;28;20376;-71
2022/05/24 03:45:11;;;;;;;0.30;0.30;;;16.30;99.90;;;;;;4972496;28;20450;-71
2022/05/24 03:47:38;;;;;;;0.38;0.38;;;16.40;99.90;;;;;;4972179;28;20039;-71
2022/05/24 03:50:08;;;;;;;0.10;0.10;;;16.40;99.90;;;;;;4971230;28;20041;-70
2022/05/24 03:52:35;;;;;;;0.88;0.88;;;16.40;99.90;;;;;;4972096;28;20030;-70
2022/05/24 03:55:01;;;;;;;4.75;0.80;;;16.40;99.90;;;;;;4987769;28;20034;-71
2022/05/24 04:00:15;;;;;;;1.08;0.45;;;16.40;99.90;;;;;;4971971;28;20717;-70
2022/05/24 04:02:41;;;;;;;0.10;0.10;;;16.40;99.90;;;;;;4969831;28;20542;-73
2022/05/24 04:05:08;;;;;;;0.00;0.00;;;16.40;99.90;;;;;;4984496;28;20023;-73
2022/05/24 04:07:34;;;;;;;0.15;0.15;;;16.40;99.90;;;;;;4980331;28;20066;-73
2022/05/24 04:10:01;;;;;;;0.00;0.00;;;16.50;99.90;;;;;;4971896;28;20084;-72
2022/05/24 04:12:26;;;;;;;0.00;0.00;;;16.40;99.90;;;;;;4971707;28;20065;-72
2022/05/24 04:14:52;;;;;;;0.05;0.05;;;16.40;99.90;;;;;;4972172;28;20065;-72
2022/05/24 04:17:18;;;;;;;0.03;0.03;;;16.50;99.90;;;;;;4953242;28;20051;-72
2022/05/24 04:19:44;;;;;;;0.00;0.00;;;16.50;99.90;;;;;;4957315;28;20062;-72
2022/05/24 04:22:10;;;;;;;0.00;0.00;;;16.40;99.90;;;;;;4965338;28;20035;-72
2022/05/24 04:24:35;;;;;;;0.00;0.00;;;16.40;99.90;;;;;;4978438;28;20026;-70
2022/05/24 04:27:05;;;;;;;0.00;0.00;;;16.60;99.90;;;;;;4930938;28;20547;-70
2022/05/24 04:29:31;;;;;;;0.00;0.00;;;16.50;99.90;;;;;;4942775;29;20109;-70
2022/05/24 04:31:57;;;;;;;0.20;0.20;;;16.50;99.90;;;;;;4945827;29;20035;-72
2022/05/24 04:34:23;;;;;;;0.00;0.00;;;16.50;99.90;;;;;;4949803;29;20042;-71
2022/05/24 04:36:48;;;;;;;0.00;0.00;;;16.60;99.90;;;;;;4950490;28;20043;-72
2022/05/24 04:39:15;;;;;;;0.17;0.17;;;16.70;99.90;;;;;;4967006;28;20078;-72
2022/05/24 04:44:25;;;;;;;0.00;0.00;;;16.60;99.90;;;;;;4951460;29;20055;-72
2022/05/24 04:47:10;;;;;;;0.10;0.10;;;16.60;99.90;;;;;;4952324;28;20499;-73
2022/05/24 04:49:38;;;;;;;0.10;0.10;;;16.60;99.90;;;;;;4951801;29;20055;-71
2022/05/24 04:52:06;;;;;;;0.00;0.00;;;16.60;99.90;;;;;;4951481;29;20039;-71
2022/05/24 04:54:32;;;;;;;0.80;0.80;;;16.60;99.90;;;;;;4923055;28;20048;-73
2022/05/24 04:56:58;;;;;;;0.05;0.05;;;16.70;99.90;;;;;;4963741;28;20083;-72
2022/05/24 04:59:24;;;;;;;0.00;0.00;;;16.80;99.90;;;;;;4931856;29;20036;-74
2022/05/24 05:01:53;;;;;;;0.03;0.03;;;16.80;99.90;;;;;;4935026;29;20031;-72
2022/05/24 05:04:51;;;;;;;0.52;0.50;;;16.80;99.90;;;;;;4935832;29;20439;-74
2022/05/24 05:07:23;;;;;;;0.00;0.00;;;16.70;99.90;;;;;;4950093;29;20039;-74
2022/05/24 05:09:51;;;;;;;0.05;0.05;;;16.80;99.90;;;;;;4963066;28;20126;-75
2022/05/24 05:12:19;;;;;;;0.00;0.00;;;16.60;99.90;;;;;;4965268;28;20036;-74
2022/05/24 05:14:44;;;;;;;0.13;0.13;;;16.80;99.90;;;;;;4952170;28;20503;-73
2022/05/24 05:17:11;;;;;;;0.00;0.00;;;16.70;99.90;;;;;;4951738;29;20074;-73
2022/05/24 05:19:38;;;;;;;0.10;0.10;;;16.80;99.90;;;;;;4947653;29;20031;-70
2022/05/24 05:22:05;;;;;;;0.10;0.10;;;16.80;99.90;;;;;;4933240;29;20036;-71
2022/05/24 05:24:32;;;;;;;0.00;0.00;;;16.80;99.90;;;;;;4933017;29;20023;-70
2022/05/24 05:26:58;;;;;;;0.55;0.45;;;16.80;99.90;;;;;;5019817;23;20043;-73
2022/05/24 05:32:54;;;;;;;0.00;0.00;;;16.70;99.90;;;;;;4971735;28;20105;-75
2022/05/24 05:35:20;;;;;;;0.00;0.00;;;16.70;99.90;;;;;;4971037;28;20037;-71
2022/05/24 05:37:48;;;;;;;0.10;0.10;;;16.70;99.90;;;;;;4966554;28;20099;-77
2022/05/24 05:40:14;;;;;;;0.00;0.00;;;16.70;99.90;;;;;;4982242;28;20027;-78
2022/05/24 05:42:41;;;;;;;0.00;0.00;;;16.70;99.90;;;;;;4989442;28;20031;-76
2022/05/24 05:45:10;;;;;;;0.00;0.00;;;16.60;99.90;;;;;;4974209;28;20030;-76
2022/05/24 05:47:37;;;;;;;0.00;0.00;;;16.70;99.90;;;;;;4990733;28;20092;-76
2022/05/24 05:50:04;;;;;;;0.00;0.00;;;16.70;99.90;;;;;;4989557;28;20768;-75
2022/05/24 05:52:30;;;;;;;0.00;0.00;;;16.70;99.90;;;;;;4989390;28;20129;-76
2022/05/24 05:54:56;;;;;;;0.00;0.00;;;16.70;99.90;;;;;;4973444;28;20121;-76
2022/05/24 05:57:22;;;;;;;0.00;0.00;;;16.60;99.90;;;;;;4990414;28;20486;-76
2022/05/24 05:59:47;;;;;;;0.00;0.00;;;16.70;99.90;;;;;;4990503;28;20114;-77
2022/05/24 06:02:13;;;;;;;0.00;0.00;;;16.70;99.90;;;;;;4974003;28;20571;-77
2022/05/24 06:04:39;;;;;;;0.00;0.00;;;16.70;99.90;;;;;;4970984;28;20027;-76
2022/05/24 06:07:05;;;;;;;0.00;0.00;;;16.70;99.90;;;;;;4970832;28;20027;-77
2022/05/24 06:09:31;;;;;;;0.10;0.10;;;16.70;99.90;;;;;;4970064;28;20034;-77
2022/05/24 06:11:59;;;;;;;0.22;0.22;;;16.70;99.90;;;;;;4971802;28;20027;-77
2022/05/24 06:14:25;;;;;;;0.10;0.10;;;16.80;99.90;;;;;;4971774;28;20407;-76
2022/05/24 06:16:51;;;;;;;0.00;0.00;;;16.80;99.90;;;;;;4974837;28;20034;-77
2022/05/24 06:19:16;;;;;;;0.43;0.43;;;16.90;99.90;;;;;;4975045;28;20027;-76
2022/05/24 06:21:42;;;;;;;0.00;0.00;;;16.80;99.90;;;;;;4974490;28;20030;-77
2022/05/24 06:24:08;;;;;;;0.00;0.00;;;16.70;99.90;;;;;;4975279;28;20463;-78
2022/05/24 06:26:35;;;;;;;0.00;0.00;;;16.70;99.90;;;;;;4974005;28;20023;-77
2022/05/24 06:29:01;;;;;;;0.00;0.00;;;16.70;99.90;;;;;;4973532;28;20046;-77
2022/05/24 06:31:27;;;;;;;0.10;0.10;;;16.70;99.90;;;;;;4981163;28;20038;-79
2022/05/24 06:33:53;;;;;;;0.00;0.00;;;16.70;99.90;;;;;;4976737;28;20026;-78
2022/05/24 06:36:19;;;;;;;0.00;0.00;;;16.60;99.90;;;;;;4975444;28;20038;-77
2022/05/24 06:38:45;;;;;;;0.00;0.00;;;16.70;99.90;;;;;;4973205;28;20034;-84
2022/05/24 06:41:10;;;;;;;4.75;2.38;;;16.80;99.90;;;;;;4974680;28;20023;-79
2022/05/24 06:43:36;;;;;;;0.00;0.00;;;16.70;99.90;;;;;;4973461;28;20077;-78
2022/05/24 06:46:10;;;;;;;0.00;0.00;;;16.70;99.90;;;;;;4974840;28;20081;-78
2022/05/24 06:48:40;;;;;;;0.00;0.00;;;16.70;99.90;;;;;;4973483;28;20039;-78
2022/05/24 06:51:19;;;;;;;0.00;0.00;;;16.50;99.90;;;;;;4973853;28;20458;-80
2022/05/24 06:53:47;;;;;;;0.00;0.00;;;16.60;99.90;;;;;;4974638;28;20446;-78
2022/05/24 06:56:13;;;;;;;0.28;0.28;;;16.70;99.90;;;;;;4973608;28;20030;-78
2022/05/24 06:58:39;;;;;;;0.00;0.00;;;16.70;99.90;;;;;;4973089;28;20029;-77
2022/05/24 07:03:54;;;;;;;0.10;0.10;;;16.60;99.90;;;;;;4973179;28;20031;-78
2022/05/24 07:06:20;;;;;;;0.00;0.00;;;16.50;99.90;;;;;;4973672;28;20031;-79
2022/05/24 07:08:48;;;;;;;0.00;0.00;;;16.60;99.90;;;;;;4976132;28;20471;-78
2022/05/24 07:11:17;;;;;;;0.00;0.00;;;16.50;99.90;;;;;;4973491;28;20035;-78
2022/05/24 07:13:43;;;;;;;0.22;0.22;;;16.50;99.90;;;;;;4973516;28;20081;-78
2022/05/24 07:16:10;;;;;;;0.00;0.00;;;16.50;99.90;;;;;;4976872;28;20422;-80
2022/05/24 07:18:37;;;;;;;0.00;0.00;;;16.20;99.90;;;;;;4975768;28;20709;-79
2022/05/24 07:21:05;;;;;;;0.00;0.00;;;15.90;99.90;;;;;;4976523;28;20094;-79
2022/05/24 07:23:37;;;;;;;0.00;0.00;;;15.60;99.90;;;;;;4977233;28;20019;-80
2022/05/24 07:26:29;;;;;;;;;;;15.50;99.90;;;;;;4976306;28;20033;-79
2022/05/24 07:28:54;;;;;;;0.00;0.00;;;15.40;99.90;;;;;;4977296;28;19921;-77
2022/05/24 07:31:20;;;;;;;0.00;0.00;;;15.50;99.90;;;;;;4976673;28;20031;-77
2022/05/24 07:33:46;;;;;;;0.00;0.00;;;15.60;99.90;;;;;;4978035;28;20027;-77
2022/05/24 07:36:12;;;;;;;0.00;0.00;;;15.70;99.90;;;;;;4977871;28;20027;-76
2022/05/24 07:38:38;;;;;;;0.00;0.00;;;15.80;99.90;;;;;;4977248;28;20620;-77
2022/05/24 07:46:34;;;;;;;0.00;0.00;;;16.00;99.90;;;;;;4973453;28;20038;-76
2022/05/24 07:49:00;;;;;;;0.00;0.00;;;16.10;99.90;;;;;;4955816;28;20426;-77
2022/05/24 07:51:26;;;;;;;0.00;0.00;;;16.20;99.90;;;;;;4972131;28;20566;-76
2022/05/24 07:53:52;;;;;;;0.00;0.00;;;16.30;99.90;;;;;;4973351;28;20113;-76
2022/05/24 07:56:19;;;;;;;0.00;0.00;;;16.30;99.90;;;;;;4979644;28;20038;-76
2022/05/24 07:58:46;;;;;;;0.00;0.00;;;16.60;99.90;;;;;;4977776;28;20082;-75
2022/05/24 08:01:15;;;;;;;0.00;0.00;;;16.80;99.90;;;;;;4973443;28;20041;-75
2022/05/24 08:03:41;;;;;;;0.13;0.13;;;16.70;99.90;;;;;;4972213;28;20062;-75
2022/05/24 08:06:08;;;;;;;0.00;0.00;;;16.80;99.90;;;;;;4972201;28;20367;-75
2022/05/24 08:08:34;;;;;;;0.05;0.05;;;16.90;99.90;;;;;;4971778;28;20033;-76
2022/05/24 08:11:01;;;;;;;0.00;0.00;;;17.00;99.90;;;;;;4955507;28;20102;-77
2022/05/24 08:13:27;;;;;;;0.00;0.00;;;17.00;99.90;;;;;;4972965;28;20444;-75
2022/05/24 08:15:54;;;;;;;0.00;0.00;;;17.10;99.90;;;;;;4971871;28;20038;-77
2022/05/24 08:18:21;;;;;;;0.00;0.00;;;17.00;99.90;;;;;;4971655;28;20042;-74
2022/05/24 08:20:47;;;;;;;0.00;0.00;;;16.90;99.90;;;;;;4971991;28;20031;-76
2022/05/24 08:23:14;;;;;;;0.00;0.00;;;17.00;99.90;;;;;;4972914;28;20026;-75
2022/05/24 08:25:42;;;;;;;0.00;0.00;;;17.00;99.90;;;;;;4971860;28;20022;-76
2022/05/24 08:28:08;;;;;;;0.00;0.00;;;17.20;99.90;;;;;;4972969;28;20169;-75
2022/05/24 08:30:37;;;;;;;0.10;0.10;;;17.40;99.90;;;;;;4958171;28;20494;-75
2022/05/24 08:33:04;;;;;;;0.10;0.10;;;17.60;99.90;;;;;;4963697;28;20046;-76
2022/05/24 08:35:33;;;;;;;0.00;0.00;;;17.60;99.90;;;;;;4972754;28;20403;-76
2022/05/24 08:38:05;;;;;;;0.00;0.00;;;17.60;99.90;;;;;;4970972;28;20030;-74
2022/05/24 08:40:33;;;;;;;0.00;0.00;;;17.70;99.90;;;;;;4972770;28;20057;-75
2022/05/24 08:43:31;;;;;;;0.03;0.03;;;17.70;99.90;;;;;;4971915;28;20074;-76
2022/05/24 08:48:55;;;;;;;0.00;0.00;;;17.60;99.90;;;;;;4971046;28;20754;-75
2022/05/24 08:51:28;;;;;;;0.00;0.00;;;17.50;99.90;;;;;;4971802;28;20027;-75
2022/05/24 08:54:05;;;;;;;0.00;0.00;;;17.60;99.90;;;;;;4971161;28;20046;-75
2022/05/24 08:57:01;;;;;;;0.00;0.00;;;17.70;99.90;;;;;;4970937;28;20114;-75
2022/05/24 08:59:36;;;;;;;0.00;0.00;;;17.60;99.90;;;;;;4969886;28;20140;-75
2022/05/24 09:02:06;;;;;;;0.25;0.25;;;17.70;99.90;;;;;;4972046;28;20030;-76
2022/05/24 09:04:32;;;;;;;0.32;0.13;;;17.80;99.90;;;;;;4970835;28;20027;-75
2022/05/24 09:07:42;;;;;;;0.00;0.00;;;17.80;99.90;;;;;;4954886;28;20034;-76
2022/05/24 09:10:21;;;;;;;0.00;0.00;;;17.70;99.90;;;;;;4971955;28;20026;-76
2022/05/24 09:13:24;;;;;;;0.00;0.00;;;17.60;99.90;;;;;;4971565;28;20035;-76
2022/05/24 09:16:06;;;;;;;1.35;0.98;;;17.40;99.90;;;;;;4971287;28;20031;-80
2022/05/24 09:19:02;;;;;;;0.00;0.00;;;17.00;99.90;;;;;;4970409;28;20035;-79
2022/05/24 09:21:33;;;;;;;0.00;0.00;;;16.30;99.90;;;;;;4972153;28;20031;-78
2022/05/24 09:24:14;;;;;;;1.00;0.73;;;16.00;99.90;;;;;;4954998;28;20093;-78
2022/05/24 09:27:04;;;;;;;;;;;16.10;99.90;;;;;;4972231;28;20110;-77
2022/05/24 09:29:33;;;;;;;0.43;0.43;;;16.30;99.90;;;;;;4970829;28;20000;-77
2022/05/24 09:32:08;;;;;;;0.00;0.00;;;16.60;99.90;;;;;;4969846;28;20035;-77
2022/05/24 09:34:37;;;;;;;0.00;0.00;;;16.60;99.90;;;;;;4970001;28;20091;-77
2022/05/24 09:37:20;;;;;;;0.00;0.00;;;16.70;99.90;;;;;;4971020;28;20085;-77
2022/05/24 09:40:15;;;;;;;0.00;0.00;;;16.80;99.90;;;;;;4971138;28;20093;-76
2022/05/24 09:42:41;;;;;;;0.00;0.00;;;16.90;99.90;;;;;;4970921;28;20078;-77
2022/05/24 09:45:17;;;;;;;0.00;0.00;;;17.00;99.90;;;;;;4953928;28;20039;-76
2022/05/24 09:47:43;;;;;;;0.00;0.00;;;16.70;99.90;;;;;;4969615;28;20042;-77
2022/05/24 09:50:15;;;;;;;0.22;0.10;;;16.70;99.90;;;;;;4974230;28;20039;-77
2022/05/24 09:52:46;;;;;;;0.20;0.20;;;16.70;99.90;;;;;;4974421;28;20133;-77
2022/05/24 09:55:21;;;;;;;;;;;16.80;99.90;;;;;;4973742;28;20027;-77
2022/05/24 09:57:47;;;;;;;0.00;0.00;;;17.00;99.90;;;;;;4973171;28;20009;-76
2022/05/24 10:00:23;;;;;;;0.00;0.00;;;17.20;99.90;;;;;;4975618;28;20105;-77
2022/05/24 10:03:02;;;;;;;0.38;0.38;;;17.10;99.90;;;;;;4974347;28;20155;-76
2022/05/24 10:05:29;;;;;;;0.00;0.00;;;17.30;99.90;;;;;;4973230;28;20169;-76
2022/05/24 10:08:04;;;;;;;0.00;0.00;;;17.50;99.90;;;;;;4956619;28;20023;-76
2022/05/24 10:10:44;;;;;;;0.00;0.00;;;17.60;99.90;;;;;;4973932;28;20034;-76
2022/05/24 10:13:37;;;;;;;0.00;0.00;;;17.90;99.90;;;;;;4972383;28;20081;-77
2022/05/24 10:17:08;;;;;;;0.30;0.17;;;17.80;99.90;;;;;;4973374;28;20109;-76
2022/05/24 10:19:52;;;;;;;0.00;0.00;;;18.00;99.90;;;;;;4973031;28;20034;-76
2022/05/24 10:23:08;;;;;;;0.00;0.00;;;18.00;99.90;;;;;;4974108;28;20093;-77
2022/05/24 10:25:48;;;;;;;0.00;0.00;;;18.10;99.90;;;;;;4972512;28;20428;-76
2022/05/24 10:28:35;;;;;;;;;;;18.10;99.90;;;;;;4937869;28;1071211;-76
2022/05/24 10:31:29;;;;;;;0.28;0.17;;;18.30;98.40;;;;;;4974880;28;19946;-76
2022/05/24 10:40:40;;;;;;;0.00;0.00;;;18.70;93.80;;;;;;4974930;28;20034;-76
2022/05/24 10:44:03;;;;;;;0.00;0.00;;;18.90;92.80;;;;;;4973567;28;20023;-76
2022/05/24 10:46:45;;;;;;;0.00;0.00;;;18.70;93.10;;;;;;4974786;28;20085;-77
2022/05/24 10:49:33;;;;;;;8.70;0.35;;;18.70;93.10;;;;;;4974315;28;20031;-76
2022/05/24 10:52:33;;;;;;;0.00;0.00;;;19.00;91.10;;;;;;4973393;28;20034;-76
2022/05/24 10:55:30;;;;;;;0.00;0.00;;;19.20;91.50;;;;;;4974254;28;20518;-77
2022/05/24 10:58:14;;;;;;;0.00;0.00;;;19.30;91.10;;;;;;4973330;28;20034;-77
2022/05/24 11:00:50;;;;;;;0.00;0.00;;;19.30;92.20;;;;;;4972721;28;20474;-77
2022/05/24 11:03:24;;;;;;;0.00;0.00;;;19.40;91.00;;;;;;4974236;28;20108;-76
2022/05/24 11:06:11;;;;;;;0.00;0.00;;;19.20;90.30;;;;;;4974506;28;20058;-77
2022/05/24 11:09:09;;;;;;;0.80;0.55;;;19.40;90.80;;;;;;4974501;28;20066;-77
2022/05/24 11:12:02;;;;;;;0.00;0.00;;;19.30;91.60;;;;;;4973213;28;20042;-77
2022/05/24 11:14:31;;;;;;;0.00;0.00;;;19.70;92.30;;;;;;4972993;28;20039;-74
2022/05/24 11:16:58;;;;;;;0.00;0.00;;;19.80;91.70;;;;;;4973597;28;20499;-75
2022/05/24 11:19:38;;;;;;;0.00;0.00;;;19.80;91.60;;;;;;4972460;28;20704;-75
2022/05/24 11:22:09;;;;;;;0.00;0.00;;;19.70;91.70;;;;;;4972820;28;20030;-76
2022/05/24 11:25:00;;;;;;;0.00;0.00;;;19.90;90.50;;;;;;4973931;28;20133;-76
2022/05/24 11:27:37;;;;;;;0.00;0.00;;;19.60;90.80;;;;;;4974000;28;20046;-75
2022/05/24 11:30:36;;;;;;;0.13;0.10;;;19.80;91.00;;;;;;4972335;28;20045;-76
2022/05/24 11:33:11;;;;;;;0.00;0.00;;;20.00;91.60;;;;;;4972577;28;20034;-76
2022/05/24 11:35:50;;;;;;;0.00;0.00;;;20.30;87.80;;;;;;4973540;28;20035;-75
2022/05/24 11:38:22;;;;;;;0.77;0.43;;;20.30;90.00;;;;;;4972418;28;20062;-76
2022/05/24 11:41:09;;;;;;;0.00;0.00;;;20.50;89.70;;;;;;4973682;28;20058;-78
2022/05/24 11:43:43;;;;;;;0.00;0.00;;;20.60;89.60;;;;;;4973718;28;20031;-78
2022/05/24 11:46:34;;;;;;;0.00;0.00;;;20.80;87.30;;;;;;4973591;28;20394;-76
2022/05/24 11:49:05;;;;;;;0.00;0.00;;;20.40;87.40;;;;;;4973219;28;20414;-77
2022/05/24 11:51:52;;;;;;;0.00;0.00;;;20.20;87.50;;;;;;4986196;28;20033;-76
2022/05/24 11:54:19;;;;;;;0.13;0.13;;;20.40;86.90;;;;;;4991606;28;20186;-77
2022/05/24 11:56:55;;;;;;;0.00;0.00;;;20.90;85.70;;;;;;4992569;28;20084;-76
2022/05/24 11:59:46;;;;;;;0.00;0.00;;;21.40;84.70;;;;;;4991565;28;20038;-76
2022/05/24 12:02:32;;;;;;;0.00;0.00;;;21.20;84.20;;;;;;4987942;28;20490;-76
2022/05/24 12:08:26;;;;;;;0.00;0.00;;;20.50;86.50;;;;;;4972485;28;20023;-78
2022/05/24 12:11:12;;;;;;;0.00;0.00;;;21.00;85.70;;;;;;4973043;28;20030;-76
2022/05/24 12:14:09;;;;;;;0.00;0.00;;;21.40;83.30;;;;;;4965055;28;20580;-76
2022/05/24 12:16:55;;;;;;;0.00;0.00;;;21.40;84.40;;;;;;4972075;28;20077;-76
2022/05/24 12:19:45;;;;;;;0.00;0.00;;;21.10;85.10;;;;;;4972978;28;20047;-77
2022/05/24 12:22:16;;;;;;;0.00;0.00;;;21.20;84.70;;;;;;4972793;28;20063;-79
2022/05/24 12:24:48;;;;;;;0.00;0.00;;;21.40;83.90;;;;;;4971548;28;20498;-77
2022/05/24 12:27:47;;;;;;;0.30;0.20;;;21.60;80.00;;;;;;4972679;28;20035;-78
2022/05/24 12:30:25;;;;;;;0.10;0.10;;;21.50;78.40;;;;;;4972598;28;20077;-78
2022/05/24 12:32:53;;;;;;;0.00;0.00;;;21.60;78.10;;;;;;4972815;28;20062;-78
2022/05/24 12:35:20;;;;;;;7.72;1.48;;;21.90;77.80;;;;;;4971424;28;20106;-78
2022/05/24 12:37:56;;;;;;;0.00;0.00;;;21.70;76.80;;;;;;4971232;28;20038;-78
2022/05/24 12:40:29;;;;;;;0.00;0.00;;;22.00;76.10;;;;;;4972376;28;20087;-77
2022/05/24 12:43:00;;;;;;;0.00;0.00;;;21.80;77.30;;;;;;4972389;28;20023;-77
2022/05/24 12:45:40;;;;;;;;;;;21.90;77.30;;;;;;4971872;28;20118;-77
2022/05/24 12:48:18;;;;;;;0.00;0.00;;;22.00;77.60;;;;;;4972417;28;19957;-77
2022/05/24 12:50:44;;;;;;;0.00;0.00;;;22.40;76.10;;;;;;4972441;28;20038;-77
2022/05/24 12:53:19;;;;;;;0.00;0.00;;;22.00;77.00;;;;;;4972576;28;20565;-78
2022/05/24 12:56:03;;;;;;;0.00;0.00;;;21.90;76.10;;;;;;4971535;28;20046;-77
2022/05/24 12:58:41;;;;;;;0.00;0.00;;;21.80;74.60;;;;;;4971904;28;20034;-78
2022/05/24 13:01:26;;;;;;;0.00;0.00;;;21.80;75.00;;;;;;4972818;28;20033;-77
2022/05/24 13:04:04;;;;;;;0.00;0.00;;;21.90;75.00;;;;;;4967857;28;20032;-77
2022/05/24 13:06:34;;;;;;;13.45;2.17;;;22.00;75.90;;;;;;4953660;29;20027;-78
2022/05/24 13:09:21;;;;;;;0.00;0.00;;;22.50;76.20;;;;;;4952571;28;20109;-77
2022/05/24 13:12:11;;;;;;;0.00;0.00;;;22.90;75.60;;;;;;4956243;29;20122;-77
2022/05/24 13:14:58;;;;;;;0.00;0.00;;;23.00;75.40;;;;;;4952914;29;20035;-77
2022/05/24 13:17:28;;;;;;;0.00;0.00;;;22.70;75.50;;;;;;4957721;29;20035;-77
2022/05/24 13:20:03;;;;;;;0.00;0.00;;;22.60;75.90;;;;;;4972176;28;20038;-77
2022/05/24 13:23:03;;;;;;;0.08;0.08;;;22.10;75.70;;;;;;4967301;28;20329;-77
2022/05/24 13:25:54;;;;;;;0.00;0.00;;;22.20;73.70;;;;;;4953054;28;20039;-77
2022/05/24 13:28:40;;;;;;;0.00;0.00;;;22.30;72.40;;;;;;4952611;28;20125;-77
2022/05/24 13:34:19;;;;;;;0.00;0.00;;;22.90;70.80;;;;;;4970837;28;20442;-77
2022/05/24 13:36:59;;;;;;;0.00;0.00;;;23.30;69.60;;;;;;4970495;28;20042;-77
2022/05/24 13:39:26;;;;;;;1.10;0.63;;;23.30;70.00;;;;;;4970406;28;20027;-76
2022/05/24 13:42:01;;;;;;;0.00;0.00;;;23.40;69.00;;;;;;4971942;28;20053;-77
2022/05/24 13:45:18;;;;;;;0.00;0.00;;;23.60;67.20;;;;;;4970484;28;20033;-77
2022/05/24 13:47:59;;;;;;;0.00;0.00;;;23.20;67.20;;;;;;4960651;28;20067;-77
2022/05/24 13:50:41;;;;;;;0.00;0.00;;;22.50;68.90;;;;;;4971487;28;20034;-76
2022/05/24 13:53:27;;;;;;;0.10;0.05;;;21.80;68.40;;;;;;4970451;28;20122;-77
2022/05/24 13:56:02;;;;;;;0.00;0.00;;;22.00;70.20;;;;;;4972306;28;20046;-77
2022/05/24 13:58:28;;;;;;;0.00;0.00;;;21.90;68.40;;;;;;4967194;28;20038;-77
2022/05/24 14:01:04;;;;;;;0.00;0.00;;;21.90;68.30;;;;;;4952179;28;20039;-77
2022/05/24 14:03:40;;;;;;;0.75;0.20;;;21.70;68.30;;;;;;4967371;28;20074;-76
2022/05/24 14:06:11;;;;;;;0.00;0.00;;;21.50;69.30;;;;;;4971526;28;20054;-76